createdAt,value
2023-03-21T00:00:40.825Z,100208.06
2023-03-21T00:03:08.780Z,100208.06
2023-03-21T00:05:42.702Z,100214.03
2023-03-21T00:08:09.540Z,100203.59
2023-03-21T00:10:42.783Z,100208.66
2023-03-21T00:13:13.122Z,100211.19
2023-03-21T00:16:13.867Z,100194.38
2023-03-21T00:18:41.860Z,100198.66
2023-03-21T00:21:38.338Z,100199.75
2023-03-21T00:23:58.869Z,100197.22
2023-03-21T00:26:25.997Z,100194.56
2023-03-21T00:28:52.743Z,100196.38
2023-03-21T00:31:20.747Z,100188.69
2023-03-21T00:33:49.717Z,100196.91
2023-03-21T00:36:16.907Z,100189.78
2023-03-21T00:38:43.757Z,100190.34
2023-03-21T00:41:21.336Z,100183.09
2023-03-21T00:43:55.547Z,100178.78
2023-03-21T00:46:25.192Z,100181.69
2023-03-21T00:48:52.232Z,100173.84
2023-03-21T00:51:26.417Z,100176.59
2023-03-21T00:53:57.755Z,100168.91
2023-03-21T00:56:27.641Z,100163.09
2023-03-21T00:58:54.393Z,100165.03
2023-03-21T01:01:21.371Z,100161.66
2023-03-21T01:03:50.933Z,100158.00
2023-03-21T01:06:19.403Z,100153.69
2023-03-21T01:08:52.612Z,100153.81
2023-03-21T01:11:22.617Z,100147.91
2023-03-21T01:14:07.255Z,100151.69
2023-03-21T01:16:36.204Z,100152.66
2023-03-21T01:19:07.036Z,100141.88
2023-03-21T01:21:34.195Z,100145.38
2023-03-21T01:24:01.896Z,100142.03
2023-03-21T01:26:29.196Z,100137.56
2023-03-21T01:28:55.980Z,100134.44
2023-03-21T01:31:22.992Z,100142.41
2023-03-21T01:33:49.879Z,100140.97
2023-03-21T01:36:23.837Z,100143.06
2023-03-21T01:38:53.903Z,100142.53
2023-03-21T01:41:36.801Z,100142.34
2023-03-21T01:44:17.270Z,100140.97
2023-03-21T01:47:11.200Z,100134.09
2023-03-21T01:50:01.753Z,100134.81
2023-03-21T01:52:42.527Z,100123.22
2023-03-21T01:55:14.167Z,100130.34
2023-03-21T01:58:05.742Z,100121.81
2023-03-21T02:00:55.294Z,100112.53
2023-03-21T02:03:49.966Z,100115.91
2023-03-21T02:06:54.410Z,100110.84
2023-03-21T02:09:33.980Z,100113.50
2023-03-21T02:12:02.521Z,100106.38
2023-03-21T02:14:32.665Z,100110.75
2023-03-21T02:17:11.835Z,100107.16
2023-03-21T02:20:00.623Z,100099.66
2023-03-21T02:22:32.904Z,100105.91
2023-03-21T02:25:39.446Z,100103.19
2023-03-21T02:28:13.560Z,100105.94
2023-03-21T02:31:24.525Z,100105.03
2023-03-21T02:33:54.199Z,100098.81
2023-03-21T02:36:26.377Z,100097.38
2023-03-21T02:38:56.631Z,100098.94
2023-03-21T02:41:35.101Z,100095.59
2023-03-21T02:44:11.111Z,100102.69
2023-03-21T02:47:05.855Z,100105.97
2023-03-21T02:49:55.295Z,100103.94
2023-03-21T02:52:37.938Z,100099.91
2023-03-21T02:55:15.952Z,100104.66
2023-03-21T02:58:04.077Z,100096.16
2023-03-21T03:00:40.569Z,100098.94
2023-03-21T03:03:10.456Z,100103.19
2023-03-21T03:05:45.928Z,100100.28
2023-03-21T03:08:12.404Z,100098.44
2023-03-21T03:10:56.281Z,100101.28
2023-03-21T03:13:42.369Z,100098.44
2023-03-21T03:16:25.748Z,100095.50
2023-03-21T03:19:00.801Z,100099.84
2023-03-21T03:21:38.151Z,100098.25
2023-03-21T03:24:24.615Z,100092.38
2023-03-21T03:26:55.694Z,100092.47
2023-03-21T03:29:26.173Z,100091.63
2023-03-21T03:31:57.952Z,100083.91
2023-03-21T03:34:32.583Z,100079.59
2023-03-21T03:37:01.182Z,100082.69
2023-03-21T03:39:34.543Z,100082.25
2023-03-21T03:42:27.959Z,100083.44
2023-03-21T03:45:03.788Z,100081.41
2023-03-21T03:47:42.091Z,100077.31
2023-03-21T03:50:31.012Z,100087.47
2023-03-21T03:53:25.814Z,100083.50
2023-03-21T03:55:56.263Z,100072.00
2023-03-21T03:58:31.133Z,100081.53
2023-03-21T04:01:07.444Z,100091.88
2023-03-21T04:03:47.920Z,100088.03
2023-03-21T04:06:16.922Z,100092.66
2023-03-21T04:08:44.478Z,100088.19
2023-03-21T04:11:14.410Z,100090.63
2023-03-21T04:13:45.783Z,100098.06
2023-03-21T04:16:19.819Z,100091.22
2023-03-21T04:18:47.638Z,100090.22
2023-03-21T04:21:18.401Z,100088.56
2023-03-21T04:23:45.437Z,100084.91
2023-03-21T04:26:12.254Z,100086.72
2023-03-21T04:28:44.386Z,100084.91
2023-03-21T04:31:33.871Z,100083.34
2023-03-21T04:34:09.833Z,100085.19
2023-03-21T04:36:39.096Z,100083.25
2023-03-21T04:39:12.360Z,100079.03
2023-03-21T04:41:40.717Z,100076.38
2023-03-21T04:44:08.672Z,100080.97
2023-03-21T04:46:36.504Z,100071.06
2023-03-21T04:49:03.793Z,100078.19
2023-03-21T04:51:30.743Z,100069.78
2023-03-21T04:53:57.582Z,100072.91
2023-03-21T04:56:32.218Z,100069.53
2023-03-21T04:59:00.717Z,100071.06
2023-03-21T05:01:30.586Z,100073.00
2023-03-21T05:04:01.375Z,100067.25
2023-03-21T05:06:28.501Z,100061.56
2023-03-21T05:09:05.337Z,100059.16
2023-03-21T05:11:37.477Z,100061.09
2023-03-21T05:14:06.010Z,100057.59
2023-03-21T05:16:34.579Z,100054.13
2023-03-21T05:19:04.845Z,100068.06
2023-03-21T05:21:42.056Z,100064.59
2023-03-21T05:24:25.541Z,100070.97
2023-03-21T05:26:56.040Z,100060.13
2023-03-21T05:29:24.944Z,100064.97
2023-03-21T05:31:58.005Z,100064.13
2023-03-21T05:34:24.898Z,100060.25
2023-03-21T05:36:51.612Z,100069.16
2023-03-21T05:39:19.127Z,100071.59
2023-03-21T05:41:57.604Z,100065.94
2023-03-21T05:44:25.149Z,100069.06
2023-03-21T05:46:52.278Z,100071.13
2023-03-21T05:49:23.069Z,100070.03
2023-03-21T05:51:54.103Z,100072.44
2023-03-21T05:54:20.980Z,100072.06
2023-03-21T05:56:49.291Z,100075.66
2023-03-21T05:59:26.272Z,100080.25
2023-03-21T06:01:55.030Z,100077.59
2023-03-21T06:04:22.013Z,100078.47
2023-03-21T06:06:48.874Z,100085.44
2023-03-21T06:09:15.618Z,100088.56
2023-03-21T06:11:49.317Z,100080.47
2023-03-21T06:14:23.512Z,100080.47
2023-03-21T06:17:07.694Z,100083.00
2023-03-21T06:19:41.051Z,100088.03
2023-03-21T06:22:12.056Z,100084.44
2023-03-21T06:24:40.906Z,100086.25
2023-03-21T06:27:07.683Z,100094.78
2023-03-21T06:29:48.766Z,100089.22
2023-03-21T06:32:16.650Z,100091.66
2023-03-21T06:34:44.551Z,100093.34
2023-03-21T06:37:14.352Z,100092.13
2023-03-21T06:39:41.832Z,100094.53
2023-03-21T06:42:09.622Z,100089.38
2023-03-21T06:44:36.772Z,100091.03
2023-03-21T06:47:07.440Z,100093.13
2023-03-21T06:49:35.334Z,100090.78
2023-03-21T06:52:07.654Z,100094.53
2023-03-21T06:54:35.111Z,100089.09
2023-03-21T06:57:09.248Z,100087.53
2023-03-21T06:59:36.450Z,100081.97
2023-03-21T07:02:07.025Z,100088.00
2023-03-21T07:04:39.325Z,100081.47
2023-03-21T07:07:11.007Z,100092.34
2023-03-21T07:09:38.041Z,100092.44
2023-03-21T07:12:06.255Z,100088.63
2023-03-21T07:14:45.130Z,100091.88
2023-03-21T07:17:12.174Z,100089.44
2023-03-21T07:19:38.868Z,100087.75
2023-03-21T07:22:05.577Z,100080.09
2023-03-21T07:24:33.009Z,100076.47
2023-03-21T07:26:59.726Z,100076.03
2023-03-21T07:29:26.412Z,100081.06
2023-03-21T07:31:53.367Z,100078.31
2023-03-21T07:34:22.421Z,100074.41
2023-03-21T07:36:49.192Z,100073.44
2023-03-21T07:39:17.620Z,100071.47
2023-03-21T07:41:44.313Z,100069.09
2023-03-21T07:44:23.960Z,100074.47
2023-03-21T07:47:01.617Z,100070.97
2023-03-21T07:49:28.455Z,100069.28
2023-03-21T07:51:55.310Z,100071.81
2023-03-21T07:54:23.088Z,100069.41
2023-03-21T07:56:49.784Z,100069.31
2023-03-21T07:59:16.572Z,100068.81
2023-03-21T08:01:43.351Z,100064.41
2023-03-21T08:04:10.113Z,100071.69
2023-03-21T08:06:36.777Z,100066.38
2023-03-21T08:09:03.806Z,100061.34
2023-03-21T08:11:31.466Z,100063.63
2023-03-21T08:13:58.914Z,100057.91
2023-03-21T08:16:25.676Z,100062.38
2023-03-21T08:18:52.444Z,100055.81
2023-03-21T08:21:19.139Z,100056.97
2023-03-21T08:23:45.815Z,100052.34
2023-03-21T08:26:15.969Z,100047.75
2023-03-21T08:28:42.716Z,100043.00
2023-03-21T08:31:10.639Z,100045.38
2023-03-21T08:33:37.624Z,100045.69
2023-03-21T08:36:05.260Z,100036.19
2023-03-21T08:38:33.559Z,100044.16
2023-03-21T08:41:00.977Z,100043.59
2023-03-21T08:43:28.815Z,100035.34
2023-03-21T08:45:56.342Z,100028.78
2023-03-21T08:48:23.331Z,100032.84
2023-03-21T08:50:50.354Z,100030.44
2023-03-21T08:53:17.111Z,100036.34
2023-03-21T08:55:44.748Z,100028.81
2023-03-21T08:58:11.432Z,100033.28
2023-03-21T09:00:38.146Z,100032.03
2023-03-21T09:03:05.205Z,100032.47
2023-03-21T09:05:32.019Z,100030.09
2023-03-21T09:08:01.500Z,100028.97
2023-03-21T09:10:28.263Z,100025.19
2023-03-21T09:12:56.086Z,100014.25
2023-03-21T09:15:25.322Z,100019.16
2023-03-21T09:17:54.046Z,100022.06
2023-03-21T09:20:26.132Z,100012.53
2023-03-21T09:22:53.304Z,100011.00
2023-03-21T09:25:21.058Z,100015.91
2023-03-21T09:27:47.946Z,100012.41
2023-03-21T09:30:18.252Z,100017.16
2023-03-21T09:32:49.456Z,100019.38
2023-03-21T09:35:20.825Z,100015.88
2023-03-21T09:37:48.950Z,100011.81
2023-03-21T09:40:21.287Z,100009.28
2023-03-21T09:43:12.674Z,100014.91
2023-03-21T09:45:41.439Z,100012.22
2023-03-21T09:48:17.495Z,100016.72
2023-03-21T09:50:44.960Z,100018.78
2023-03-21T09:53:15.336Z,100019.34
2023-03-21T09:55:42.531Z,100018.88
2023-03-21T09:58:32.245Z,100016.00
2023-03-21T10:01:29.754Z,100014.13
2023-03-21T10:03:57.325Z,100016.38
2023-03-21T10:06:30.364Z,100015.06
2023-03-21T10:09:01.183Z,100013.81
2023-03-21T10:11:32.281Z,100004.69
2023-03-21T10:14:02.537Z,100002.53
2023-03-21T10:17:03.407Z,99999.59
2023-03-21T10:19:30.831Z,100001.97
2023-03-21T10:22:01.287Z,100003.34
2023-03-21T10:24:29.709Z,100002.22
2023-03-21T10:26:57.388Z,99997.56
2023-03-21T10:29:27.895Z,99993.06
2023-03-21T10:31:54.802Z,99991.94
2023-03-21T10:34:34.303Z,99994.22
2023-03-21T10:37:03.687Z,99987.75
2023-03-21T10:39:40.269Z,99985.25
2023-03-21T10:42:09.715Z,99988.75
2023-03-21T10:44:36.597Z,99985.91
2023-03-21T10:47:06.542Z,99985.91
2023-03-21T10:49:40.633Z,99983.25
2023-03-21T10:52:20.344Z,99976.38
2023-03-21T10:54:48.412Z,99986.09
2023-03-21T10:57:21.774Z,99987.75
2023-03-21T10:59:57.922Z,99979.47
2023-03-21T11:02:28.535Z,99987.88
2023-03-21T11:04:55.819Z,99980.53
2023-03-21T11:07:25.428Z,99989.41
2023-03-21T11:09:58.305Z,99978.88
2023-03-21T11:12:33.645Z,99983.50
2023-03-21T11:15:30.884Z,99983.41
2023-03-21T11:17:58.723Z,99978.88
2023-03-21T11:20:26.238Z,99980.16
2023-03-21T11:22:55.801Z,99970.88
2023-03-21T11:25:27.539Z,99977.19
2023-03-21T11:27:55.426Z,99969.03
2023-03-21T11:30:24.591Z,99968.72
2023-03-21T11:32:55.438Z,99963.97
2023-03-21T11:35:25.719Z,99964.94
2023-03-21T11:37:54.826Z,99970.97
2023-03-21T11:40:52.214Z,99964.84
2023-03-21T11:43:18.922Z,99969.00
2023-03-21T11:46:08.920Z,99964.25
2023-03-21T11:48:41.652Z,99963.25
2023-03-21T11:51:46.510Z,99959.38
2023-03-21T11:54:20.707Z,99956.94
2023-03-21T11:57:01.566Z,99944.72
2023-03-21T11:59:52.083Z,99942.63
2023-03-21T12:02:55.157Z,99951.38
2023-03-21T12:05:53.228Z,99940.84
2023-03-21T12:08:40.985Z,99940.41
2023-03-21T12:11:27.808Z,99935.75
2023-03-21T12:14:03.786Z,99938.44
2023-03-21T12:16:36.272Z,99931.69
2023-03-21T12:19:18.389Z,99936.00
2023-03-21T12:22:06.891Z,99926.63
2023-03-21T12:24:51.274Z,99928.00
2023-03-21T12:27:30.270Z,99921.25
2023-03-21T12:29:59.900Z,99916.44
2023-03-21T12:32:45.085Z,99911.06
2023-03-21T12:35:14.420Z,99912.59
2023-03-21T12:37:53.813Z,99906.44
2023-03-21T12:40:54.699Z,99902.53
2023-03-21T12:43:33.660Z,99900.28
2023-03-21T12:46:04.179Z,99896.72
2023-03-21T12:48:44.257Z,99898.41
2023-03-21T12:51:20.767Z,99899.69
2023-03-21T12:54:02.176Z,99898.00
2023-03-21T12:56:37.710Z,99902.72
2023-03-21T12:59:16.294Z,99893.34
2023-03-21T13:01:43.359Z,99896.94
2023-03-21T13:04:34.791Z,99888.00
2023-03-21T13:07:03.895Z,99892.06
2023-03-21T13:09:39.467Z,99882.53
2023-03-21T13:12:24.481Z,99878.88
2023-03-21T13:15:24.415Z,99879.22
2023-03-21T13:17:59.628Z,99874.41
2023-03-21T13:20:35.985Z,99871.25
2023-03-21T13:23:04.099Z,99871.81
2023-03-21T13:25:33.180Z,99870.09
2023-03-21T13:28:04.672Z,99866.78
2023-03-21T13:30:32.480Z,99864.13
2023-03-21T13:33:13.380Z,99858.41
2023-03-21T13:35:42.999Z,99852.97
2023-03-21T13:38:22.799Z,99852.44
2023-03-21T13:41:06.821Z,99849.78
2023-03-21T13:43:42.516Z,99844.56
2023-03-21T13:46:14.241Z,99844.50
2023-03-21T13:48:58.600Z,99844.31
2023-03-21T13:51:28.914Z,99842.28
2023-03-21T13:54:03.700Z,99828.44
2023-03-21T13:56:52.072Z,99826.78
2023-03-21T13:59:37.628Z,99830.66
2023-03-21T14:02:20.066Z,99826.47
2023-03-21T14:05:03.932Z,99822.19
2023-03-21T14:07:37.099Z,99828.50
2023-03-21T14:10:22.639Z,99821.97
2023-03-21T14:12:49.382Z,99820.19
2023-03-21T14:15:22.767Z,99821.50
2023-03-21T14:18:27.329Z,99810.78
2023-03-21T14:21:02.157Z,99814.00
2023-03-21T14:23:28.982Z,99815.72
2023-03-21T14:25:55.962Z,99808.34
2023-03-21T14:28:28.979Z,99816.22
2023-03-21T14:31:01.896Z,99800.91
2023-03-21T14:33:35.048Z,99801.72
2023-03-21T14:36:14.681Z,99811.56
2023-03-21T14:38:42.843Z,99804.09
2023-03-21T14:41:24.955Z,99801.38
2023-03-21T14:44:11.532Z,99798.38
2023-03-21T14:46:40.508Z,99803.09
2023-03-21T14:49:28.679Z,99804.03
2023-03-21T14:51:58.247Z,99805.09
2023-03-21T14:54:27.174Z,99804.78
2023-03-21T14:57:03.668Z,99800.22
2023-03-21T14:59:37.003Z,99801.88
2023-03-21T15:02:12.070Z,99800.91
2023-03-21T15:04:38.900Z,99801.88
2023-03-21T15:07:07.763Z,99803.88
2023-03-21T15:09:35.021Z,99794.88
2023-03-21T15:12:02.272Z,99789.41
2023-03-21T15:14:34.374Z,99785.03
2023-03-21T15:17:04.433Z,99794.56
2023-03-21T15:19:36.564Z,99797.41
2023-03-21T15:22:19.197Z,99783.38
2023-03-21T15:24:50.214Z,99796.78
2023-03-21T15:27:19.520Z,99786.25
2023-03-21T15:29:46.711Z,99787.63
2023-03-21T15:32:18.191Z,99792.44
2023-03-21T15:34:45.812Z,99779.47
2023-03-21T15:37:26.639Z,99779.25
2023-03-21T15:39:54.577Z,99771.75
2023-03-21T15:42:50.633Z,99774.38
2023-03-21T15:45:21.745Z,99769.78
2023-03-21T15:47:48.360Z,99768.78
2023-03-21T15:50:24.152Z,99771.75
2023-03-21T15:52:52.105Z,99765.44
2023-03-21T15:55:28.747Z,99763.47
2023-03-21T15:58:00.940Z,99760.78
2023-03-21T16:00:36.452Z,99762.78
2023-03-21T16:03:07.169Z,99765.13
2023-03-21T16:05:34.200Z,99756.97
2023-03-21T16:08:22.598Z,99750.25
2023-03-21T16:10:49.414Z,99752.78
2023-03-21T16:13:17.393Z,99738.44
2023-03-21T16:15:44.245Z,99726.94
2023-03-21T16:18:16.135Z,99728.91
2023-03-21T16:20:46.099Z,99724.25
2023-03-21T16:23:14.273Z,99731.44
2023-03-21T16:25:42.226Z,99735.09
2023-03-21T16:28:16.935Z,99746.41
2023-03-21T16:30:44.208Z,99743.25
2023-03-21T16:33:12.273Z,99744.91
2023-03-21T16:35:39.509Z,99751.28
2023-03-21T16:38:06.193Z,99749.75
2023-03-21T16:40:37.136Z,99748.88
2023-03-21T16:43:04.016Z,99749.75
2023-03-21T16:45:30.975Z,99752.56
2023-03-21T16:47:58.277Z,99754.41
2023-03-21T16:50:31.697Z,99754.72
2023-03-21T16:52:59.028Z,99752.06
2023-03-21T16:55:26.084Z,99746.72
2023-03-21T16:57:53.436Z,99755.56
2023-03-21T17:00:23.214Z,99754.88
2023-03-21T17:02:51.814Z,99744.19
2023-03-21T17:05:18.577Z,99736.34
2023-03-21T17:07:47.134Z,99728.34
2023-03-21T17:10:17.841Z,99743.69
2023-03-21T17:12:44.901Z,99745.50
2023-03-21T17:15:12.177Z,99743.81
2023-03-21T17:17:39.009Z,99754.63
2023-03-21T17:20:17.628Z,99765.44
2023-03-21T17:22:44.897Z,99770.97
2023-03-21T17:25:11.890Z,99770.44
2023-03-21T17:27:38.868Z,99768.94
2023-03-21T17:30:35.775Z,99772.78
2023-03-21T17:33:02.714Z,99762.91
2023-03-21T17:35:29.605Z,99766.41
2023-03-21T17:37:58.284Z,99766.41
2023-03-21T17:40:30.195Z,99780.88
2023-03-21T17:42:57.182Z,99777.72
2023-03-21T17:45:25.812Z,99780.66
2023-03-21T17:47:52.794Z,99778.81
2023-03-21T17:50:24.716Z,99773.94
2023-03-21T17:52:51.975Z,99765.25
2023-03-21T17:55:21.015Z,99755.03
2023-03-21T17:57:48.882Z,99747.38
2023-03-21T18:00:22.734Z,99736.00
2023-03-21T18:02:50.646Z,99742.22
2023-03-21T18:05:18.006Z,99752.69
2023-03-21T18:08:08.990Z,99758.47
2023-03-21T18:10:32.297Z,99770.97
2023-03-21T18:13:00.194Z,99767.47
2023-03-21T18:15:30.209Z,99770.84
2023-03-21T18:17:57.685Z,99769.97
2023-03-21T18:20:42.741Z,99769.69
2023-03-21T18:23:14.207Z,99767.47
2023-03-21T18:25:41.693Z,99771.13
2023-03-21T18:28:11.795Z,99759.25
2023-03-21T18:30:56.999Z,99759.94
2023-03-21T18:33:27.332Z,99758.41
2023-03-21T18:35:59.021Z,99754.75
2023-03-21T18:38:27.700Z,99769.53
2023-03-21T18:40:55.325Z,99769.41
2023-03-21T18:46:09.212Z,99774.34
2023-03-21T18:48:36.685Z,99772.81
2023-03-21T18:51:03.949Z,99780.25
2023-03-21T18:53:30.606Z,99774.28
2023-03-21T18:55:57.566Z,99760.94
2023-03-21T18:58:25.143Z,99762.22
2023-03-21T19:00:53.956Z,99761.22
2023-03-21T19:03:35.436Z,99775.56
2023-03-21T19:06:04.764Z,99776.00
2023-03-21T19:08:32.339Z,99777.97
2023-03-21T19:11:05.555Z,99786.97
2023-03-21T19:13:33.400Z,99790.06
2023-03-21T19:16:02.417Z,99794.56
2023-03-21T19:18:50.221Z,99790.38
2023-03-21T19:21:18.192Z,99786.63
2023-03-21T19:24:20.930Z,99788.47
2023-03-21T19:26:31.526Z,99791.44
2023-03-21T19:28:58.380Z,99802.09
2023-03-21T19:31:25.221Z,99797.59
2023-03-21T19:33:52.210Z,99799.72
2023-03-21T19:36:22.807Z,99798.03
2023-03-21T19:38:50.394Z,99795.81
2023-03-21T19:41:17.964Z,99792.31
2023-03-21T19:43:53.648Z,99792.31
2023-03-21T19:46:24.645Z,99790.25
2023-03-21T19:48:56.287Z,99784.25
2023-03-21T19:51:28.613Z,99789.03
2023-03-21T19:53:56.206Z,99794.34
2023-03-21T19:56:26.553Z,99795.94
2023-03-21T19:58:56.862Z,99795.94
2023-03-21T20:01:24.688Z,99799.56
2023-03-21T20:03:52.125Z,99789.47
2023-03-21T20:06:19.271Z,99792.56
2023-03-21T20:11:33.182Z,99800.47
2023-03-21T20:14:01.902Z,99798.47
2023-03-21T20:16:34.538Z,99796.28
2023-03-21T20:19:02.923Z,99788.03
2023-03-21T20:21:36.917Z,99787.63
2023-03-21T20:24:12.966Z,99796.88
2023-03-21T20:26:39.768Z,99799.25
2023-03-21T20:29:46.991Z,99803.72
2023-03-21T20:31:53.672Z,99796.72
2023-03-21T20:34:21.222Z,99796.88
2023-03-21T20:36:48.570Z,99797.72
2023-03-21T20:39:15.447Z,99805.00
2023-03-21T20:41:42.417Z,99799.69
2023-03-21T20:46:56.672Z,99794.50
2023-03-21T20:49:24.383Z,99796.91
2023-03-21T20:54:38.447Z,99789.34
2023-03-21T20:57:05.311Z,99786.81
2023-03-21T20:59:32.642Z,99790.31
2023-03-21T21:01:59.959Z,99787.63
2023-03-21T21:04:48.317Z,99792.44
2023-03-21T21:07:21.774Z,99788.63
2023-03-21T21:09:49.442Z,99801.09
2023-03-21T21:12:19.057Z,99793.81
2023-03-21T21:14:46.843Z,99791.59
2023-03-21T21:20:01.904Z,99805.75
2023-03-21T21:22:29.011Z,99807.69
2023-03-21T21:24:55.880Z,99801.16
2023-03-21T21:27:22.595Z,99808.41
2023-03-21T21:29:49.828Z,99805.91
2023-03-21T21:32:16.932Z,99808.00
2023-03-21T21:34:43.640Z,99807.47
2023-03-21T21:37:10.605Z,99801.44
2023-03-21T21:39:38.631Z,99797.25
2023-03-21T21:42:05.708Z,99795.59
2023-03-21T21:44:32.432Z,99794.75
2023-03-21T21:46:59.459Z,99789.44
2023-03-21T21:49:26.875Z,99777.09
2023-03-21T21:51:53.874Z,99762.56
2023-03-21T21:54:20.654Z,99770.66
2023-03-21T21:56:54.096Z,99765.94
2023-03-21T21:59:22.156Z,99767.06
2023-03-21T22:01:51.206Z,99781.19
2023-03-21T22:04:18.973Z,99791.09
2023-03-21T22:06:47.537Z,99797.84
2023-03-21T22:09:15.588Z,99804.69
2023-03-21T22:11:42.298Z,99801.59
2023-03-21T22:14:08.951Z,99806.09
2023-03-21T22:16:35.959Z,99806.63
2023-03-21T22:19:02.701Z,99809.44
2023-03-21T22:21:29.449Z,99806.09
2023-03-21T22:23:56.091Z,99804.25
2023-03-21T22:26:22.905Z,99813.94
2023-03-21T22:28:49.677Z,99810.56
2023-03-21T22:31:17.359Z,99811.56
2023-03-21T22:33:44.771Z,99810.00
2023-03-21T22:36:11.843Z,99807.75
2023-03-21T22:38:38.779Z,99803.97
2023-03-21T22:41:06.558Z,99801.72
2023-03-21T22:43:34.277Z,99804.25
2023-03-21T22:46:04.977Z,99800.88
2023-03-21T22:48:32.159Z,99806.47
2023-03-21T22:50:59.837Z,99807.88
2023-03-21T22:53:26.522Z,99810.38
2023-03-21T22:55:53.192Z,99809.81
2023-03-21T22:58:19.864Z,99802.13
2023-03-21T23:00:47.361Z,99799.59
2023-03-21T23:03:16.397Z,99796.41
2023-03-21T23:05:44.480Z,99806.31
2023-03-21T23:08:11.556Z,99796.13
2023-03-21T23:10:39.574Z,99793.03
2023-03-21T23:13:06.674Z,99797.47
2023-03-21T23:15:33.374Z,99796.63
2023-03-21T23:18:00.261Z,99793.53
2023-03-21T23:20:27.008Z,99799.28
2023-03-21T23:22:53.810Z,99802.59
2023-03-21T23:25:21.969Z,99796.19
2023-03-21T23:27:48.616Z,99799.91
2023-03-21T23:30:15.304Z,99804.56
2023-03-21T23:32:42.354Z,99810.44
2023-03-21T23:35:09.794Z,99804.69
2023-03-21T23:37:36.561Z,99810.00
2023-03-21T23:40:06.306Z,99803.16
2023-03-21T23:42:34.195Z,99807.63
2023-03-21T23:45:01.135Z,99811.25
2023-03-21T23:47:28.230Z,99811.00
2023-03-21T23:49:54.909Z,99817.97
2023-03-21T23:52:21.881Z,99808.91
2023-03-21T23:54:49.683Z,99804.22
2023-03-21T23:57:17.956Z,99795.84
2023-03-21T23:59:46.840Z,99793.19
